Time;durP1;ratioP1;P1;durP2;ratioP2;P2;SDS_P1;SDS_P2;PMS_P1;PMS_P2;Temp;Humidity;BMP_temperature;BMP_pressure;BME280_temperature;BME280_humidity;BME280_pressure;Samples;Min_cycle;Max_cycle;Signal;HPM_P1;HPM_P2
2022/01/09 00:00:11;;;;;;;6.22;5.08;;;;;;;0.20;66.11;95476.97;1724340;82;21034;-80
2022/01/09 00:02:38;;;;;;;5.65;4.70;;;;;;;0.18;66.12;95465.62;1741220;82;21090;-79
2022/01/09 00:05:05;;;;;;;7.35;5.03;;;;;;;0.23;66.42;95470.30;1727171;82;21449;-79
2022/01/09 00:07:30;;;;;;;5.08;4.22;;;;;;;0.26;66.56;95458.05;1746519;82;20979;-79
2022/01/09 00:09:56;;;;;;;6.40;4.97;;;;;;;0.27;66.46;95457.09;1716138;82;21022;-79
2022/01/09 00:12:24;;;;;;;6.30;4.72;;;;;;;0.29;66.42;95455.67;1704342;82;21423;-80
2022/01/09 00:14:52;;;;;;;7.25;5.45;;;;;;;0.27;66.39;95451.18;1686936;83;21096;-80
2022/01/09 00:17:18;;;;;;;8.38;5.10;;;;;;;0.27;66.38;95449.91;1687853;83;21009;-80
2022/01/09 00:19:44;;;;;;;10.05;7.05;;;;;;;0.26;66.32;95442.71;1689267;83;21014;-80
2022/01/09 00:22:09;;;;;;;8.48;5.83;;;;;;;0.28;66.37;95444.65;1688445;83;21427;-79
2022/01/09 00:24:37;;;;;;;8.25;5.58;;;;;;;0.27;66.52;95447.34;1688127;84;21131;-79
2022/01/09 00:27:04;;;;;;;9.10;6.30;;;;;;;0.26;66.30;95439.35;1686316;84;21043;-80
2022/01/09 00:29:29;;;;;;;8.30;5.37;;;;;;;0.25;66.43;95429.61;1681727;84;20955;-79
2022/01/09 00:31:55;;;;;;;6.08;5.47;;;;;;;0.29;66.20;95436.03;1679907;84;21023;-80
2022/01/09 00:34:21;;;;;;;8.55;6.28;;;;;;;0.34;66.43;95433.08;1680115;84;20974;-79
2022/01/09 00:36:47;;;;;;;7.58;5.05;;;;;;;0.37;66.41;95429.43;1685130;84;20980;-79
2022/01/09 00:39:13;;;;;;;7.47;5.75;;;;;;;0.44;66.48;95427.42;1679210;84;21390;-79
2022/01/09 00:41:39;;;;;;;8.93;7.20;;;;;;;0.49;66.58;95429.10;1685752;84;20996;-80
2022/01/09 00:44:06;;;;;;;9.33;6.60;;;;;;;0.48;66.35;95423.62;1680898;84;21084;-80
2022/01/09 00:46:34;;;;;;;10.30;6.67;;;;;;;0.47;66.72;95419.94;1683973;84;21047;-79
2022/01/09 00:49:03;;;;;;;9.73;7.53;;;;;;;0.48;66.65;95423.62;1675510;84;21028;-80
2022/01/09 00:51:29;;;;;;;11.35;7.72;;;;;;;0.47;66.48;95414.83;1677597;84;21052;-80
2022/01/09 00:53:55;;;;;;;17.40;10.30;;;;;;;0.49;66.65;95412.48;1684168;84;21439;-80
2022/01/09 00:56:21;;;;;;;12.70;8.68;;;;;;;0.48;66.49;95412.13;1683285;84;21012;-79
2022/01/09 00:58:47;;;;;;;13.45;9.38;;;;;;;0.46;66.43;95421.69;1678376;84;21048;-80
2022/01/09 01:01:12;;;;;;;13.62;7.95;;;;;;;0.45;66.54;95419.28;1680529;84;22385;-79
2022/01/09 01:03:38;;;;;;;13.08;8.55;;;;;;;0.44;66.43;95417.67;1679852;84;21014;-80
2022/01/09 01:06:04;;;;;;;14.33;9.88;;;;;;;0.42;66.19;95417.02;1656897;84;20970;-80
2022/01/09 01:08:29;;;;;;;19.50;11.85;;;;;;;0.33;66.29;95416.14;1680025;84;21000;-80
2022/01/09 01:10:55;;;;;;;25.68;12.30;;;;;;;0.26;66.40;95413.80;1681517;84;21366;-80
2022/01/09 01:13:21;;;;;;;14.73;9.45;;;;;;;0.20;66.70;95415.19;1692862;83;21357;-79
2022/01/09 01:15:47;;;;;;;12.00;8.23;;;;;;;0.16;66.70;95416.86;1695397;83;21422;-79
2022/01/09 01:18:13;;;;;;;9.90;6.58;;;;;;;0.08;66.62;95413.75;1695277;83;21479;-80
2022/01/09 01:20:40;;;;;;;12.25;8.33;;;;;;;-0.05;66.83;95408.95;1694105;83;21058;-80
2022/01/09 01:23:05;;;;;;;13.35;7.92;;;;;;;-0.11;67.11;95406.17;1672196;83;21846;-79
2022/01/09 01:25:32;;;;;;;13.22;8.20;;;;;;;-0.15;67.29;95401.02;1694400;82;21018;-79
2022/01/09 01:27:58;;;;;;;12.45;8.88;;;;;;;-0.16;67.18;95396.38;1694128;83;21030;-81
2022/01/09 01:30:23;;;;;;;12.33;8.53;;;;;;;-0.16;67.07;95397.66;1699002;82;20980;-79
2022/01/09 01:32:49;;;;;;;9.85;7.00;;;;;;;-0.15;67.02;95388.25;1699241;83;20959;-79
2022/01/09 01:35:15;;;;;;;11.63;7.80;;;;;;;-0.15;67.04;95380.12;1695144;83;21003;-79
2022/01/09 01:37:42;;;;;;;14.00;8.18;;;;;;;-0.18;66.96;95380.38;1694085;83;21053;-79
2022/01/09 01:40:15;;;;;;;11.25;7.75;;;;;;;-0.19;66.93;95376.21;1694807;83;20983;-79
2022/01/09 01:42:41;;;;;;;11.95;8.00;;;;;;;-0.20;67.11;95364.39;1689736;82;20995;-79
2022/01/09 01:45:08;;;;;;;10.08;7.40;;;;;;;-0.24;67.05;95366.91;1697104;83;20970;-80
2022/01/09 01:47:33;;;;;;;11.80;8.70;;;;;;;-0.29;66.98;95361.89;1671875;84;21056;-79
2022/01/09 01:49:59;;;;;;;10.95;8.03;;;;;;;-0.33;67.25;95358.80;1700133;83;21023;-80
2022/01/09 01:52:34;;;;;;;11.75;8.03;;;;;;;-0.33;67.28;95353.69;1699827;83;20995;-80
2022/01/09 01:54:56;;;;;;;11.63;8.23;;;;;;;-0.33;67.50;95357.52;1691439;83;20983;-80
2022/01/09 01:57:21;;;;;;;13.75;9.43;;;;;;;-0.33;67.38;95353.69;1696661;82;21404;-80
2022/01/09 01:59:47;;;;;;;11.70;8.93;;;;;;;-0.32;67.36;95340.81;1696771;83;21009;-80
2022/01/09 02:02:13;;;;;;;10.30;8.75;;;;;;;-0.33;67.33;95340.92;1697726;83;21062;-80
2022/01/09 02:04:40;;;;;;;11.12;8.05;;;;;;;-0.35;67.29;95332.14;1694998;83;21372;-80
2022/01/09 02:07:05;;;;;;;13.03;8.75;;;;;;;-0.34;67.32;95335.49;1694614;83;20985;-80
2022/01/09 02:09:31;;;;;;;20.60;9.28;;;;;;;-0.37;67.35;95325.56;1672278;84;21040;-80
2022/01/09 02:11:57;;;;;;;12.78;8.48;;;;;;;-0.40;67.34;95320.75;1698829;83;21414;-80
2022/01/09 02:14:23;;;;;;;14.68;10.08;;;;;;;-0.44;67.51;95318.16;1670289;84;21043;-80
2022/01/09 02:16:50;;;;;;;14.60;9.90;;;;;;;-0.46;67.60;95320.05;1670688;85;21034;-79
2022/01/09 02:19:16;;;;;;;16.57;10.80;;;;;;;-0.46;67.74;95320.05;1660520;85;21399;-79
2022/01/09 02:21:44;;;;;;;16.93;10.53;;;;;;;-0.42;67.97;95327.27;1649690;85;20997;-79
2022/01/09 02:24:13;;;;;;;15.40;10.48;;;;;;;-0.48;67.86;95324.02;1638792;86;21058;-79
2022/01/09 02:26:39;;;;;;;14.05;10.08;;;;;;;-0.49;68.09;95326.67;1662336;85;21051;-79
2022/01/09 02:29:05;;;;;;;14.78;9.00;;;;;;;-0.51;68.29;95326.82;1650399;85;21066;-80
2022/01/09 02:31:32;;;;;;;11.33;8.40;;;;;;;-0.53;68.47;95319.78;1641400;86;21005;-80
2022/01/09 02:33:58;;;;;;;11.08;8.95;;;;;;;-0.53;68.67;95311.32;1665017;85;21469;-79
2022/01/09 02:36:24;;;;;;;7.85;6.10;;;;;;;-0.49;68.48;95310.09;1671522;84;21030;-79
2022/01/09 02:38:50;;;;;;;8.40;6.05;;;;;;;-0.44;68.29;95302.84;1641514;85;21023;-79
2022/01/09 02:41:15;;;;;;;9.58;7.03;;;;;;;-0.43;68.21;95305.25;1671713;85;20995;-79
2022/01/09 02:43:41;;;;;;;7.87;5.45;;;;;;;-0.39;68.13;95295.56;1664931;85;21345;-80
2022/01/09 02:46:25;;;;;;;7.72;5.75;;;;;;;-0.38;68.08;95298.44;1658079;85;21062;-79
2022/01/09 02:48:39;;;;;;;7.03;5.20;;;;;;;-0.39;68.10;95293.00;1658663;85;21046;-80
2022/01/09 02:51:11;;;;;;;9.00;6.55;;;;;;;-0.38;68.03;95294.61;1657035;85;21036;-80
2022/01/09 02:53:35;;;;;;;7.00;5.53;;;;;;;-0.35;68.18;95286.66;1664780;85;21046;-79
2022/01/09 02:56:02;;;;;;;7.20;5.83;;;;;;;-0.36;68.10;95276.93;1649238;85;21051;-79
2022/01/09 02:58:28;;;;;;;7.42;6.12;;;;;;;-0.36;68.08;95271.83;1658404;85;21394;-79
2022/01/09 03:00:54;;;;;;;7.95;6.37;;;;;;;-0.36;67.90;95264.16;1668243;85;20969;-80
2022/01/09 03:03:19;;;;;;;5.92;4.47;;;;;;;-0.36;68.03;95264.16;1667790;85;21014;-80
2022/01/09 03:05:45;;;;;;;8.00;4.90;;;;;;;-0.38;67.85;95257.60;1654977;85;22029;-79
2022/01/09 03:08:11;;;;;;;7.05;5.25;;;;;;;-0.41;68.03;95264.27;1654461;85;21099;-80
2022/01/09 03:10:37;;;;;;;6.15;5.55;;;;;;;-0.46;67.88;95259.60;1663435;85;21020;-79
2022/01/09 03:13:05;;;;;;;5.25;4.30;;;;;;;-0.49;67.97;95253.95;1658089;83;21069;-79
2022/01/09 03:15:31;;;;;;;6.30;4.92;;;;;;;-0.52;67.80;95242.76;1655712;84;21081;-79
2022/01/09 03:17:57;;;;;;;9.28;5.55;;;;;;;-0.55;68.08;95246.88;1701148;83;21117;-79
2022/01/09 03:20:24;;;;;;;7.17;5.58;;;;;;;-0.57;68.15;95228.35;1698339;83;20998;-79
2022/01/09 03:22:51;;;;;;;7.72;5.95;;;;;;;-0.61;68.07;95227.84;1674231;83;20986;-79
2022/01/09 03:25:16;;;;;;;7.47;6.03;;;;;;;-0.66;68.16;95225.69;1675426;83;20994;-79
2022/01/09 03:27:45;;;;;;;9.00;6.47;;;;;;;-0.68;68.04;95211.00;1686207;83;21041;-79
2022/01/09 03:30:11;;;;;;;9.45;6.03;;;;;;;-0.68;67.94;95199.52;1672010;84;21008;-79
2022/01/09 03:32:38;;;;;;;6.78;5.80;;;;;;;-0.68;67.88;95202.55;1684714;82;20991;-79
2022/01/09 03:35:06;;;;;;;8.28;6.55;;;;;;;-0.68;67.97;95198.25;1687868;82;21107;-79
2022/01/09 03:37:32;;;;;;;6.28;5.37;;;;;;;-0.76;68.17;95200.72;1686150;82;21369;-79
2022/01/09 03:39:58;;;;;;;6.30;5.67;;;;;;;-0.80;68.31;95201.14;1678444;84;20984;-79
2022/01/09 03:42:24;;;;;;;8.68;6.33;;;;;;;-0.82;68.22;95207.63;1679226;84;20993;-79
2022/01/09 03:44:49;;;;;;;7.83;5.53;;;;;;;-0.83;68.26;95197.10;1687437;84;21350;-79
2022/01/09 03:47:15;;;;;;;6.50;5.72;;;;;;;-0.88;68.33;95198.48;1672980;84;21011;-79
2022/01/09 03:49:41;;;;;;;9.38;5.83;;;;;;;-0.89;68.39;95199.42;1690232;82;21359;-79
2022/01/09 03:52:07;;;;;;;6.80;5.30;;;;;;;-0.93;68.44;95193.81;1687326;82;21397;-79
2022/01/09 03:54:36;;;;;;;6.17;5.30;;;;;;;-0.97;68.50;95202.69;1669489;84;20988;-79
2022/01/09 03:57:00;;;;;;;8.85;5.35;;;;;;;-1.03;68.46;95200.67;1684592;82;21367;-79
2022/01/09 03:59:26;;;;;;;12.60;8.18;;;;;;;-1.05;68.65;95200.82;1673935;84;20989;-79
2022/01/09 04:01:52;;;;;;;9.50;7.08;;;;;;;-1.04;68.60;95200.34;1705937;82;21013;-79
2022/01/09 04:04:17;;;;;;;9.70;7.65;;;;;;;-1.07;68.63;95203.98;1693827;82;21088;-79
2022/01/09 04:06:46;;;;;;;8.30;7.00;;;;;;;-1.07;68.89;95210.36;1677278;83;21027;-79
2022/01/09 04:09:18;;;;;;;10.15;7.53;;;;;;;-1.06;68.79;95206.86;1689658;82;21551;-79
2022/01/09 04:11:40;;;;;;;10.55;8.30;;;;;;;-1.02;68.96;95208.19;1688469;82;21417;-79
2022/01/09 04:14:06;;;;;;;8.20;7.20;;;;;;;-1.04;68.85;95204.97;1696528;82;21051;-79
2022/01/09 04:16:32;;;;;;;8.33;6.97;;;;;;;-1.07;69.05;95207.81;1698728;82;21069;-79
2022/01/09 04:18:58;;;;;;;8.20;6.53;;;;;;;-1.06;69.29;95217.53;1702921;82;21364;-79
2022/01/09 04:21:23;;;;;;;8.28;6.53;;;;;;;-1.10;69.58;95216.20;1694526;82;21327;-79
2022/01/09 04:23:49;;;;;;;8.55;6.75;;;;;;;-1.10;69.85;95216.20;1705911;82;21057;-79
2022/01/09 04:26:16;;;;;;;12.03;8.40;;;;;;;-1.07;70.03;95228.67;1701850;82;21067;-79
2022/01/09 04:28:43;;;;;;;9.35;7.70;;;;;;;-1.09;69.99;95236.94;1702613;82;20990;-80
2022/01/09 04:31:09;;;;;;;9.18;7.58;;;;;;;-1.11;70.22;95243.92;1692803;82;21314;-79
2022/01/09 04:33:34;;;;;;;8.98;6.97;;;;;;;-1.13;70.16;95247.08;1700563;82;21021;-79
2022/01/09 04:36:00;;;;;;;9.43;6.92;;;;;;;-1.14;70.32;95248.00;1703492;82;21051;-79
2022/01/09 04:38:26;;;;;;;10.98;6.87;;;;;;;-1.18;70.37;95250.49;1702411;82;21018;-79
2022/01/09 04:40:51;;;;;;;10.05;8.45;;;;;;;-1.19;70.63;95240.77;1705658;82;20980;-79
2022/01/09 04:43:18;;;;;;;8.78;7.00;;;;;;;-1.23;70.51;95238.97;1702427;82;21074;-79
2022/01/09 04:45:45;;;;;;;9.18;7.33;;;;;;;-1.21;70.66;95233.27;1686670;83;20962;-79
2022/01/09 04:48:12;;;;;;;9.58;7.58;;;;;;;-1.17;70.64;95232.51;1701734;82;20970;-79
2022/01/09 04:50:40;;;;;;;9.73;7.87;;;;;;;-1.14;70.67;95229.71;1708771;82;21433;-79
2022/01/09 04:53:07;;;;;;;9.73;6.97;;;;;;;-1.11;70.72;95226.08;1710396;82;20986;-79
2022/01/09 04:55:41;;;;;;;9.50;6.80;;;;;;;-1.09;70.70;95219.89;1701883;82;21961;-79
2022/01/09 04:58:08;;;;;;;8.03;6.92;;;;;;;-1.08;70.66;95215.13;1701570;82;21382;-79
2022/01/09 05:00:34;;;;;;;8.20;6.85;;;;;;;-1.07;70.64;95215.92;1701400;83;20983;-79
2022/01/09 05:03:00;;;;;;;8.45;6.58;;;;;;;-1.07;70.55;95212.10;1705883;82;21389;-79
2022/01/09 05:05:26;;;;;;;7.72;6.15;;;;;;;-1.04;70.62;95213.89;1703545;82;20951;-79
2022/01/09 05:07:51;;;;;;;7.67;5.83;;;;;;;-1.02;70.47;95218.86;1702013;82;21008;-79
2022/01/09 05:10:17;;;;;;;6.97;5.85;;;;;;;-1.01;70.42;95221.27;1702955;82;20959;-79
2022/01/09 05:12:43;;;;;;;6.87;5.10;;;;;;;-0.98;70.37;95222.72;1707565;82;21397;-79
2022/01/09 05:15:09;;;;;;;6.90;5.33;;;;;;;-0.98;70.36;95224.00;1705409;82;21001;-79
2022/01/09 05:17:36;;;;;;;6.40;5.05;;;;;;;-0.99;70.25;95224.47;1705548;82;20979;-79
2022/01/09 05:20:03;;;;;;;6.37;4.87;;;;;;;-0.99;70.38;95221.13;1702734;82;21011;-79
2022/01/09 05:22:30;;;;;;;6.60;4.80;;;;;;;-1.00;70.31;95220.79;1708981;82;21042;-79
2022/01/09 05:24:58;;;;;;;5.75;4.60;;;;;;;-1.02;70.17;95216.30;1694596;82;21426;-80
2022/01/09 05:27:24;;;;;;;5.50;4.15;;;;;;;-1.04;70.14;95210.55;1706205;82;21380;-79
2022/01/09 05:29:49;;;;;;;5.92;4.80;;;;;;;-1.04;70.07;95211.81;1704017;82;20996;-79
2022/01/09 05:32:15;;;;;;;5.65;4.42;;;;;;;-1.03;70.08;95210.88;1713069;82;21016;-78
2022/01/09 05:34:41;;;;;;;5.05;4.17;;;;;;;-1.02;69.96;95208.19;1698211;82;21343;-79
2022/01/09 05:37:06;;;;;;;4.70;4.30;;;;;;;-1.00;69.99;95204.22;1688503;82;21025;-79
2022/01/09 05:39:33;;;;;;;4.90;3.85;;;;;;;-1.01;69.86;95202.14;1707919;82;21053;-79
2022/01/09 05:41:59;;;;;;;5.28;4.50;;;;;;;-1.08;69.74;95214.32;1685463;82;20965;-79
2022/01/09 05:44:25;;;;;;;5.25;4.62;;;;;;;-1.13;69.86;95219.84;1706460;82;20996;-79
2022/01/09 05:46:50;;;;;;;5.47;4.30;;;;;;;-1.14;69.90;95222.06;1713735;82;21057;-79
2022/01/09 05:49:16;;;;;;;7.50;4.67;;;;;;;-1.14;69.83;95220.79;1703434;82;21016;-79
2022/01/09 05:51:42;;;;;;;6.80;4.67;;;;;;;-1.12;69.77;95211.73;1689150;82;21006;-79
2022/01/09 05:54:08;;;;;;;5.15;4.50;;;;;;;-1.14;69.66;95218.68;1703313;82;20978;-79
2022/01/09 05:56:33;;;;;;;4.97;3.98;;;;;;;-1.18;69.70;95230.91;1704905;82;20971;-79
2022/01/09 05:58:59;;;;;;;6.47;5.33;;;;;;;-1.24;69.76;95232.27;1709664;82;22038;-79
2022/01/09 06:01:25;;;;;;;5.92;4.92;;;;;;;-1.33;69.67;95238.64;1679495;83;20935;-79
2022/01/09 06:03:51;;;;;;;6.80;5.35;;;;;;;-1.37;69.84;95236.84;1699782;82;20982;-80
2022/01/09 06:06:16;;;;;;;8.10;6.85;;;;;;;-1.43;70.00;95236.59;1700176;82;21604;-79
2022/01/09 06:08:42;;;;;;;5.42;4.60;;;;;;;-1.45;70.10;95238.48;1700520;82;21040;-79
2022/01/09 06:11:08;;;;;;;7.55;5.20;;;;;;;-1.50;70.13;95237.59;1704208;82;21367;-79
2022/01/09 06:13:34;;;;;;;5.30;4.80;;;;;;;-1.53;70.17;95237.87;1704597;82;21053;-79
2022/01/09 06:16:00;;;;;;;6.45;5.10;;;;;;;-1.53;70.25;95242.50;1705226;83;20990;-79
2022/01/09 06:18:27;;;;;;;6.45;5.25;;;;;;;-1.57;70.31;95240.36;1710640;82;21315;-79
2022/01/09 06:20:53;;;;;;;6.65;4.92;;;;;;;-1.58;70.28;95238.28;1699401;82;21401;-79
2022/01/09 06:23:20;;;;;;;6.97;5.35;;;;;;;-1.57;70.09;95240.36;1701621;82;20964;-79
2022/01/09 06:25:50;;;;;;;6.60;5.42;;;;;;;-1.53;70.19;95241.22;1700612;82;22123;-79
2022/01/09 06:28:16;;;;;;;5.50;4.65;;;;;;;-1.49;70.06;95239.20;1707725;82;21024;-79
2022/01/09 06:30:42;;;;;;;6.05;4.53;;;;;;;-1.51;69.75;95238.53;1710899;83;21352;-79
2022/01/09 06:33:09;;;;;;;5.58;4.30;;;;;;;-1.50;69.70;95238.87;1704514;82;20951;-79
2022/01/09 06:35:34;;;;;;;5.87;4.42;;;;;;;-1.49;69.26;95244.77;1703112;82;20956;-79
2022/01/09 06:38:00;;;;;;;6.45;4.42;;;;;;;-1.48;69.12;95249.72;1704792;82;21042;-79
2022/01/09 06:40:26;;;;;;;4.03;3.58;;;;;;;-1.43;69.04;95242.97;1704024;82;20979;-79
2022/01/09 06:42:51;;;;;;;4.05;3.50;;;;;;;-1.42;68.67;95237.73;1702357;82;20899;-79
2022/01/09 06:45:17;;;;;;;4.62;3.20;;;;;;;-1.40;68.70;95233.30;1707768;82;21434;-79
2022/01/09 06:47:43;;;;;;;5.58;3.70;;;;;;;-1.37;68.29;95234.30;1668684;83;21030;-79
2022/01/09 06:50:14;;;;;;;3.58;3.27;;;;;;;-1.32;68.30;95232.13;1702682;83;21445;-79
2022/01/09 06:52:40;;;;;;;7.40;6.50;;;;;;;-1.30;67.63;95230.75;1703621;82;21539;-79
2022/01/09 06:55:07;;;;;;;6.08;5.17;;;;;;;-1.28;68.09;95225.05;1706100;82;21028;-79
2022/01/09 06:57:33;;;;;;;4.72;4.10;;;;;;;-1.25;68.02;95225.56;1687613;82;21032;-79
2022/01/09 06:59:58;;;;;;;5.17;4.62;;;;;;;-1.22;67.76;95225.28;1709197;82;20972;-79
2022/01/09 07:02:24;;;;;;;4.67;3.20;;;;;;;-1.17;67.68;95213.86;1708754;82;20967;-79
2022/01/09 07:04:50;;;;;;;4.87;4.47;;;;;;;-1.16;67.17;95223.11;1710351;82;21317;-79
2022/01/09 07:07:16;;;;;;;4.50;4.08;;;;;;;-1.15;67.31;95229.34;1715258;82;21026;-79
2022/01/09 07:09:42;;;;;;;4.42;4.00;;;;;;;-1.16;66.99;95225.19;1701009;82;21427;-79
2022/01/09 07:12:09;;;;;;;6.03;4.47;;;;;;;-1.13;66.97;95230.05;1707089;82;20984;-79
2022/01/09 07:14:36;;;;;;;6.28;5.30;;;;;;;-1.10;66.19;95209.84;1677722;83;21052;-79
2022/01/09 07:17:02;;;;;;;7.22;6.62;;;;;;;-1.08;66.71;95220.22;1697944;83;21342;-79
2022/01/09 07:19:28;;;;;;;7.37;6.00;;;;;;;-1.06;66.61;95217.53;1694049;83;21380;-79
2022/01/09 07:21:54;;;;;;;7.83;6.95;;;;;;;-1.05;66.91;95216.12;1676204;83;20989;-79
2022/01/09 07:24:20;;;;;;;4.45;4.05;;;;;;;-1.06;67.13;95217.06;1693657;84;21056;-79
2022/01/09 07:26:45;;;;;;;6.90;5.17;;;;;;;-1.07;66.97;95209.55;1665534;85;20989;-79
2022/01/09 07:29:12;;;;;;;6.28;5.37;;;;;;;-1.08;66.75;95208.75;1675854;84;21014;-79
2022/01/09 07:31:38;;;;;;;5.67;4.25;;;;;;;-1.10;66.68;95220.03;1656941;85;20982;-79
2022/01/09 07:34:03;;;;;;;5.95;5.30;;;;;;;-1.12;66.49;95203.61;1675288;85;21067;-79
2022/01/09 07:36:29;;;;;;;9.35;6.78;;;;;;;-1.09;66.85;95206.34;1677505;85;21435;-79
2022/01/09 07:38:55;;;;;;;7.10;5.90;;;;;;;-1.09;66.98;95202.52;1717664;83;21182;-79
2022/01/09 07:41:20;;;;;;;6.22;5.05;;;;;;;-1.10;66.95;95202.99;1707574;82;20967;-79
2022/01/09 07:43:47;;;;;;;5.78;4.87;;;;;;;-1.13;67.07;95187.17;1739339;82;20979;-79
2022/01/09 07:46:13;;;;;;;5.22;4.55;;;;;;;-1.15;66.78;95186.02;1707291;82;21444;-79
2022/01/09 07:48:39;;;;;;;10.65;6.75;;;;;;;-1.14;66.82;95185.10;1691130;83;21102;-79
2022/01/09 07:51:05;;;;;;;8.98;6.55;;;;;;;-1.12;66.83;95189.58;1686654;84;21071;-81
2022/01/09 07:53:31;;;;;;;5.60;4.55;;;;;;;-1.06;66.51;95184.39;1680467;84;21059;-79
2022/01/09 07:55:57;;;;;;;5.12;4.00;;;;;;;-1.04;65.85;95183.77;1681573;84;21321;-79
2022/01/09 07:58:23;;;;;;;4.40;3.50;;;;;;;-1.03;65.73;95172.63;1680181;84;20993;-79
2022/01/09 08:00:48;;;;;;;5.75;4.25;;;;;;;-1.02;65.50;95177.59;1680167;84;21002;-79
2022/01/09 08:03:14;;;;;;;8.45;4.97;;;;;;;-0.99;65.33;95176.03;1680345;84;21454;-79
2022/01/09 08:05:40;;;;;;;5.37;4.25;;;;;;;-0.95;65.22;95174.83;1677132;84;20959;-79
2022/01/09 08:08:06;;;;;;;5.42;4.75;;;;;;;-0.90;64.80;95175.67;1658451;85;20990;-79
2022/01/09 08:10:32;;;;;;;6.90;4.80;;;;;;;-0.85;65.02;95183.69;1680506;84;21193;-79
2022/01/09 08:13:00;;;;;;;6.42;4.78;;;;;;;-0.82;65.06;95178.30;1686833;83;20983;-79
2022/01/09 08:15:29;;;;;;;5.55;4.50;;;;;;;-0.79;65.02;95189.52;1687118;82;21028;-79
2022/01/09 08:17:55;;;;;;;5.37;4.25;;;;;;;-0.77;64.34;95185.55;1679051;84;21000;-80
2022/01/09 08:20:21;;;;;;;6.97;6.40;;;;;;;-0.76;64.63;95185.41;1679281;83;20986;-80
2022/01/09 08:22:47;;;;;;;4.35;3.95;;;;;;;-0.73;64.82;95186.40;1680412;83;21347;-79
2022/01/09 08:25:15;;;;;;;5.33;3.55;;;;;;;-0.74;64.16;95168.69;1678800;83;20932;-79
2022/01/09 08:27:43;;;;;;;7.83;7.03;;;;;;;-0.72;64.21;95159.94;1677841;85;21071;-79
2022/01/09 08:30:10;;;;;;;5.45;4.00;;;;;;;-0.68;64.02;95170.66;1678143;84;22259;-79
2022/01/09 08:32:37;;;;;;;4.40;3.72;;;;;;;-0.67;63.84;95170.52;1701277;83;20955;-79
2022/01/09 08:35:03;;;;;;;6.03;4.35;;;;;;;-0.62;63.54;95175.21;1648222;86;21299;-79
2022/01/09 08:37:29;;;;;;;3.90;3.50;;;;;;;-0.61;63.64;95167.41;1678504;84;21039;-79
2022/01/09 08:39:55;;;;;;;5.40;4.87;;;;;;;-0.57;62.89;95173.50;1683132;84;21076;-80
2022/01/09 08:42:21;;;;;;;3.95;3.55;;;;;;;-0.56;63.03;95166.97;1684180;83;21008;-79
2022/01/09 08:44:46;;;;;;;4.22;3.70;;;;;;;-0.53;62.61;95167.95;1682448;84;21047;-79
2022/01/09 08:47:12;;;;;;;5.03;4.12;;;;;;;-0.50;62.62;95171.49;1678697;83;20942;-79
2022/01/09 08:49:38;;;;;;;5.00;4.03;;;;;;;-0.48;61.92;95159.42;1680328;83;21395;-79
2022/01/09 08:52:04;;;;;;;6.47;3.40;;;;;;;-0.44;62.18;95163.76;1682295;84;20963;-79
2022/01/09 08:54:30;;;;;;;4.50;3.60;;;;;;;-0.42;61.16;95171.59;1680877;83;21040;-79
2022/01/09 08:56:56;;;;;;;3.62;3.20;;;;;;;-0.38;61.75;95173.38;1680061;84;20925;-79
2022/01/09 08:59:22;;;;;;;6.15;3.83;;;;;;;-0.37;60.90;95166.85;1682738;85;21394;-80
2022/01/09 09:01:47;;;;;;;4.62;4.22;;;;;;;-0.33;60.49;95168.63;1683034;85;21011;-79
2022/01/09 09:04:13;;;;;;;5.30;4.10;;;;;;;-0.31;61.09;95165.02;1683500;85;21015;-80
2022/01/09 09:06:39;;;;;;;4.30;3.45;;;;;;;-0.26;60.80;95166.33;1683743;85;21457;-79
2022/01/09 09:09:06;;;;;;;4.87;3.45;;;;;;;-0.25;60.01;95172.56;1684017;85;21022;-79
2022/01/09 09:11:33;;;;;;;4.28;3.50;;;;;;;-0.20;60.87;95161.91;1661920;85;21049;-79
2022/01/09 09:13:59;;;;;;;5.30;4.75;;;;;;;-0.18;60.07;95169.74;1683103;85;21371;-79
2022/01/09 09:16:26;;;;;;;4.92;3.30;;;;;;;-0.15;59.80;95161.02;1692455;85;21003;-79
2022/01/09 09:18:53;;;;;;;7.47;4.20;;;;;;;-0.13;59.76;95154.81;1701786;83;20970;-79
2022/01/09 09:21:19;;;;;;;6.40;4.72;;;;;;;-0.07;59.82;95154.69;1715689;83;21105;-79
2022/01/09 09:23:45;;;;;;;5.78;3.72;;;;;;;-0.03;59.56;95155.52;1715811;83;21939;-79
2022/01/09 09:26:11;;;;;;;3.67;3.20;;;;;;;0.04;59.54;95152.40;1715947;83;21065;-79
2022/01/09 09:28:37;;;;;;;3.98;3.27;;;;;;;0.08;58.61;95152.42;1716251;83;21066;-79
2022/01/09 09:31:04;;;;;;;5.17;3.77;;;;;;;0.15;58.74;95149.59;1716713;83;21046;-79
2022/01/09 09:33:30;;;;;;;4.47;3.05;;;;;;;0.18;58.54;95146.77;1716787;83;21042;-79
2022/01/09 09:35:58;;;;;;;4.75;3.60;;;;;;;0.22;58.50;95145.52;1716556;83;21085;-79
2022/01/09 09:38:23;;;;;;;4.70;3.33;;;;;;;0.27;58.56;95140.28;1716300;83;20988;-79
2022/01/09 09:40:49;;;;;;;3.83;3.30;;;;;;;0.35;57.83;95137.00;1716208;83;21025;-79
2022/01/09 09:43:16;;;;;;;3.58;2.87;;;;;;;0.41;58.17;95138.95;1716357;83;20985;-79
2022/01/09 09:45:43;;;;;;;3.08;2.67;;;;;;;0.47;57.28;95134.50;1690347;83;21014;-79
2022/01/09 09:48:09;;;;;;;3.47;3.00;;;;;;;0.54;56.88;95130.89;1716615;83;21313;-79
2022/01/09 09:50:35;;;;;;;4.67;3.40;;;;;;;0.59;56.47;95133.78;1716090;84;21034;-79
2022/01/09 09:53:02;;;;;;;4.45;3.40;;;;;;;0.65;56.22;95125.98;1716692;83;21388;-79
2022/01/09 09:55:28;;;;;;;4.62;3.40;;;;;;;0.72;57.03;95132.10;1716618;83;20996;-79
2022/01/09 09:57:53;;;;;;;4.75;3.83;;;;;;;0.74;56.81;95132.75;1715386;82;20971;-79
2022/01/09 10:00:20;;;;;;;2.95;2.60;;;;;;;0.75;57.23;95120.29;1709024;83;20951;-79
2022/01/09 10:02:48;;;;;;;3.87;3.05;;;;;;;0.77;56.42;95133.25;1689106;83;21008;-79
2022/01/09 10:05:23;;;;;;;4.90;4.40;;;;;;;0.80;56.23;95132.13;1687803;85;20985;-80
2022/01/09 10:07:50;;;;;;;5.83;4.08;;;;;;;0.83;56.76;95134.41;1687398;85;20964;-81
2022/01/09 10:10:20;;;;;;;4.83;3.52;;;;;;;0.90;56.92;95134.11;1687719;85;21427;-80
2022/01/09 10:12:47;;;;;;;5.10;3.40;;;;;;;0.94;56.66;95128.20;1687588;85;21069;-79
2022/01/09 10:15:19;;;;;;;3.95;3.55;;;;;;;1.00;57.27;95137.84;1676086;85;21052;-80
2022/01/09 10:17:48;;;;;;;5.53;3.37;;;;;;;1.06;56.18;95139.30;1656384;86;20973;-80
2022/01/09 10:20:20;;;;;;;5.35;4.25;;;;;;;1.11;56.79;95136.28;1659828;86;21465;-79
2022/01/09 10:22:48;;;;;;;4.85;3.98;;;;;;;1.15;56.67;95144.80;1660804;86;21011;-79
2022/01/09 10:25:30;;;;;;;11.48;6.25;;;;;;;1.22;56.15;95122.41;1660468;86;21031;-80
2022/01/09 10:28:12;;;;;;;4.12;3.30;;;;;;;1.30;56.73;95133.94;1660875;86;21000;-79
2022/01/09 10:30:42;;;;;;;18.10;7.20;;;;;;;1.34;55.52;95130.94;1660701;86;21427;-80
2022/01/09 10:33:16;;;;;;;5.15;3.52;;;;;;;1.39;56.65;95134.30;1660731;86;21027;-79
2022/01/09 10:35:47;;;;;;;4.15;3.10;;;;;;;1.42;56.54;95136.06;1660164;86;21004;-79
2022/01/09 10:38:22;;;;;;;4.70;3.60;;;;;;;1.47;56.40;95128.74;1659758;86;20980;-79
2022/01/09 10:40:57;;;;;;;5.45;4.17;;;;;;;1.51;56.01;95131.78;1660428;86;21454;-80
2022/01/09 10:43:26;;;;;;;4.78;3.27;;;;;;;1.58;56.47;95129.39;1660048;86;21125;-80
2022/01/09 10:45:59;;;;;;;5.22;3.30;;;;;;;1.64;55.90;95130.86;1660471;86;21083;-79
2022/01/09 10:48:39;;;;;;;5.60;3.37;;;;;;;1.69;56.36;95128.63;1660388;86;21028;-79
2022/01/09 10:51:08;;;;;;;6.10;3.67;;;;;;;1.72;56.53;95123.17;1660464;86;21019;-79
2022/01/09 10:53:42;;;;;;;7.12;4.22;;;;;;;1.74;56.22;95122.53;1660547;86;21020;-80
2022/01/09 10:56:21;;;;;;;5.37;3.30;;;;;;;1.80;56.25;95126.25;1660329;86;21019;-79
2022/01/09 10:58:52;;;;;;;3.62;2.50;;;;;;;1.85;56.61;95129.61;1648905;84;21108;-80
2022/01/09 11:01:31;;;;;;;6.10;3.70;;;;;;;1.91;56.17;95129.76;1670323;85;21024;-80
2022/01/09 11:04:00;;;;;;;5.00;3.25;;;;;;;1.96;56.12;95131.39;1687761;85;21089;-80
2022/01/09 11:06:31;;;;;;;5.33;3.30;;;;;;;1.99;56.11;95123.86;1688317;85;21032;-79
2022/01/09 11:08:58;;;;;;;4.35;3.25;;;;;;;2.02;56.32;95115.84;1688269;85;21118;-80
2022/01/09 11:13:52;;;;;;;6.58;4.00;;;;;;;2.13;56.71;95128.83;1688185;85;22127;-80
2022/01/09 11:16:33;;;;;;;4.20;3.02;;;;;;;2.15;55.63;95122.58;1685819;84;21096;-79
2022/01/09 11:19:16;;;;;;;6.75;4.05;;;;;;;2.22;55.65;95121.45;1683767;85;21003;-79
2022/01/09 11:21:59;;;;;;;5.08;3.77;;;;;;;2.28;55.93;95121.63;1683934;85;21040;-80
2022/01/09 11:24:55;;;;;;;5.87;3.83;;;;;;;2.34;55.92;95122.25;1683852;85;21441;-80
2022/01/09 11:27:50;;;;;;;7.62;4.53;;;;;;;2.35;56.24;95116.63;1683793;85;21020;-79
2022/01/09 11:30:53;;;;;;;4.03;2.52;;;;;;;2.39;56.08;95120.47;1683773;85;21031;-80
2022/01/09 11:33:50;;;;;;;11.15;6.62;;;;;;;2.39;55.96;95113.58;1683926;85;21012;-81
2022/01/09 11:36:32;;;;;;;4.22;2.90;;;;;;;2.44;56.14;95109.72;1683768;85;20992;-80